createdAt,value
2018-07-26T00:01:11.366Z,94276.75
2018-07-26T00:03:40.442Z,94279.75
2018-07-26T00:06:09.574Z,94277.27
2018-07-26T00:08:38.791Z,94277.67
2018-07-26T00:11:07.929Z,94271.16
2018-07-26T00:13:37.075Z,94267.27
2018-07-26T00:16:06.532Z,94265.91
2018-07-26T00:18:35.654Z,94270.08
2018-07-26T00:21:05.072Z,94266.30
2018-07-26T00:23:34.153Z,94265.17
2018-07-26T00:26:03.950Z,94257.35
2018-07-26T00:28:33.082Z,94256.93
2018-07-26T00:31:02.225Z,94262.05
2018-07-26T00:33:32.565Z,94257.84
2018-07-26T00:36:01.631Z,94252.95
2018-07-26T00:38:30.710Z,94255.19
2018-07-26T00:40:59.816Z,94253.67
2018-07-26T00:43:28.984Z,94252.60
2018-07-26T00:45:58.060Z,94258.98
2018-07-26T00:48:27.328Z,94257.84
2018-07-26T00:50:56.457Z,94252.91
2018-07-26T00:53:25.558Z,94264.48
2018-07-26T00:55:54.701Z,94268.41
2018-07-26T00:58:23.731Z,94260.48
2018-07-26T01:00:52.780Z,94257.27
2018-07-26T01:03:21.886Z,94255.47
2018-07-26T01:05:50.967Z,94254.98
2018-07-26T01:08:20.082Z,94253.75
2018-07-26T01:10:49.231Z,94251.32
2018-07-26T01:13:18.747Z,94244.52
2018-07-26T01:15:47.865Z,94247.04
2018-07-26T01:18:16.901Z,94248.08
2018-07-26T01:20:46.033Z,94255.80
2018-07-26T01:23:15.278Z,94251.81
2018-07-26T01:25:44.474Z,94244.06
2018-07-26T01:28:13.540Z,94238.43
2018-07-26T01:30:42.690Z,94249.48
2018-07-26T01:33:11.697Z,94248.14
2018-07-26T01:35:40.775Z,94246.19
2018-07-26T01:38:10.157Z,94245.53
2018-07-26T01:40:39.226Z,94252.47
2018-07-26T01:43:18.977Z,94251.89
2018-07-26T01:45:48.155Z,94249.27
2018-07-26T01:48:17.370Z,94248.72
2018-07-26T01:50:46.520Z,94242.19
2018-07-26T01:53:15.593Z,94243.63
2018-07-26T01:55:44.615Z,94241.88
2018-07-26T01:58:13.694Z,94241.02
2018-07-26T02:00:42.904Z,94239.19
2018-07-26T02:03:11.959Z,94240.80
2018-07-26T02:05:41.112Z,94237.54
2018-07-26T02:08:10.618Z,94243.12
2018-07-26T02:10:39.678Z,94240.61
2018-07-26T02:13:08.824Z,94239.27
2018-07-26T02:15:37.932Z,94238.64
2018-07-26T02:18:07.083Z,94233.03
2018-07-26T02:20:36.126Z,94237.13
2018-07-26T02:23:05.302Z,94240.98
2018-07-26T02:25:34.455Z,94242.15
2018-07-26T02:28:03.646Z,94240.53
2018-07-26T02:30:32.714Z,94240.23
2018-07-26T02:33:02.131Z,94242.81
2018-07-26T02:35:31.271Z,94248.84
2018-07-26T02:38:01.075Z,94247.52
2018-07-26T02:40:30.409Z,94249.34
2018-07-26T02:42:59.513Z,94255.51
2018-07-26T02:45:28.757Z,94258.92
2018-07-26T02:47:57.822Z,94253.20
2018-07-26T02:50:26.913Z,94249.08
2018-07-26T02:52:56.487Z,94251.69
2018-07-26T02:55:25.661Z,94241.88
2018-07-26T02:57:55.004Z,94239.61
2018-07-26T03:00:24.083Z,94246.70
2018-07-26T03:02:53.530Z,94247.82
2018-07-26T03:05:22.706Z,94251.69
2018-07-26T03:07:51.886Z,94244.05
2018-07-26T03:10:20.997Z,94241.19
2018-07-26T03:12:50.163Z,94240.19
2018-07-26T03:15:19.507Z,94239.05
2018-07-26T03:17:48.546Z,94240.91
2018-07-26T03:20:17.767Z,94245.52
2018-07-26T03:22:46.804Z,94244.80
2018-07-26T03:25:15.936Z,94248.86
2018-07-26T03:27:45.434Z,94241.88
2018-07-26T03:30:14.791Z,94244.47
2018-07-26T03:32:43.793Z,94246.80
2018-07-26T03:35:12.909Z,94246.02
2018-07-26T03:37:41.955Z,94247.32
2018-07-26T03:40:11.005Z,94251.59
2018-07-26T03:42:40.152Z,94249.14
2018-07-26T03:45:09.414Z,94247.19
2018-07-26T03:47:38.669Z,94256.98
2018-07-26T03:50:07.772Z,94251.39
2018-07-26T03:52:36.858Z,94255.64
2018-07-26T03:55:05.952Z,94246.44
2018-07-26T03:57:35.106Z,94251.48
2018-07-26T04:00:04.274Z,94243.51
2018-07-26T04:02:33.384Z,94247.36
2018-07-26T04:05:02.466Z,94250.45
2018-07-26T04:07:31.684Z,94251.72
2018-07-26T04:10:00.816Z,94252.73
2018-07-26T04:12:30.679Z,94252.03
2018-07-26T04:14:59.867Z,94253.30
2018-07-26T04:17:28.964Z,94262.06
2018-07-26T04:19:58.899Z,94267.40
2018-07-26T04:22:28.080Z,94266.92
2018-07-26T04:24:57.191Z,94263.84
2018-07-26T04:27:26.376Z,94254.05
2018-07-26T04:29:55.504Z,94265.30
2018-07-26T04:32:24.846Z,94255.16
2018-07-26T04:34:54.051Z,94256.23
2018-07-26T04:37:23.303Z,94257.82
2018-07-26T04:39:52.412Z,94263.20
2018-07-26T04:42:21.526Z,94259.04
2018-07-26T04:44:50.743Z,94252.31
2018-07-26T04:47:20.699Z,94258.65
2018-07-26T04:49:49.771Z,94259.88
2018-07-26T04:52:18.948Z,94265.53
2018-07-26T04:54:48.373Z,94266.26
2018-07-26T04:57:17.430Z,94269.34
2018-07-26T04:59:46.951Z,94273.94
2018-07-26T05:02:16.083Z,94275.09
2018-07-26T05:04:45.137Z,94280.60
2018-07-26T05:07:14.304Z,94280.95
2018-07-26T05:09:44.114Z,94278.54
2018-07-26T05:12:13.249Z,94277.34
2018-07-26T05:14:42.345Z,94269.64
2018-07-26T05:17:11.685Z,94277.45
2018-07-26T05:19:40.795Z,94272.56
2018-07-26T05:22:09.850Z,94274.55
2018-07-26T05:24:39.072Z,94273.30
2018-07-26T05:27:08.235Z,94274.69
2018-07-26T05:29:37.702Z,94278.83
2018-07-26T05:32:06.811Z,94274.00
2018-07-26T05:34:36.109Z,94276.56
2018-07-26T05:37:05.422Z,94271.41
2018-07-26T05:39:34.560Z,94274.67
2018-07-26T05:42:03.845Z,94278.20
2018-07-26T05:44:33.826Z,94272.27
2018-07-26T05:47:03.747Z,94280.30
2018-07-26T05:49:32.894Z,94272.85
2018-07-26T05:52:01.988Z,94263.66
2018-07-26T05:54:31.146Z,94259.31
2018-07-26T05:57:00.259Z,94270.26
2018-07-26T05:59:29.999Z,94278.95
2018-07-26T06:01:59.613Z,94278.03
2018-07-26T06:04:30.538Z,94274.58
2018-07-26T06:07:01.051Z,94288.69
2018-07-26T06:09:30.259Z,94289.23
2018-07-26T06:11:59.748Z,94287.94
2018-07-26T06:14:29.955Z,94284.44
2018-07-26T06:16:59.279Z,94289.80
2018-07-26T06:19:28.557Z,94288.73
2018-07-26T06:21:57.869Z,94287.17
2018-07-26T06:24:27.085Z,94304.80
2018-07-26T06:26:56.421Z,94309.59
2018-07-26T06:29:25.683Z,94302.27
2018-07-26T06:31:55.683Z,94299.44
2018-07-26T06:34:24.836Z,94298.11
2018-07-26T06:36:54.297Z,94309.80
2018-07-26T06:39:23.621Z,94302.03
2018-07-26T06:41:52.791Z,94307.78
2018-07-26T06:44:24.034Z,94303.66
2018-07-26T06:46:53.240Z,94300.79
2018-07-26T06:49:22.520Z,94297.01
2018-07-26T06:51:51.812Z,94296.86
2018-07-26T06:54:20.852Z,94298.22
2018-07-26T06:56:51.577Z,94292.44
2018-07-26T06:59:21.941Z,94286.63
2018-07-26T07:01:51.116Z,94276.89
2018-07-26T07:04:21.086Z,94283.05
2018-07-26T07:06:50.407Z,94284.20
2018-07-26T07:09:19.602Z,94284.75
2018-07-26T07:11:49.526Z,94286.25
2018-07-26T07:14:18.816Z,94282.54
2018-07-26T07:16:48.001Z,94280.55
2018-07-26T07:19:17.138Z,94281.00
2018-07-26T07:21:46.618Z,94285.89
2018-07-26T07:24:20.723Z,94291.38
2018-07-26T07:26:51.260Z,94289.63
2018-07-26T07:29:21.406Z,94292.05
2018-07-26T07:31:51.005Z,94284.89
2018-07-26T07:34:20.197Z,94288.91
2018-07-26T07:36:49.642Z,94281.72
2018-07-26T07:39:18.864Z,94280.53
2018-07-26T07:41:48.106Z,94282.41
2018-07-26T07:44:17.194Z,94285.55
2018-07-26T07:46:46.487Z,94281.27
2018-07-26T07:49:15.901Z,94275.98
2018-07-26T07:51:45.637Z,94280.31
2018-07-26T07:54:14.826Z,94276.33
2018-07-26T07:56:43.926Z,94276.88
2018-07-26T07:59:13.111Z,94277.20
2018-07-26T08:01:42.265Z,94279.39
2018-07-26T08:04:11.401Z,94280.00
2018-07-26T08:06:40.466Z,94276.52
2018-07-26T08:09:12.111Z,94282.51
2018-07-26T08:11:41.409Z,94272.01
2018-07-26T08:14:10.929Z,94272.51
2018-07-26T08:16:40.045Z,94271.05
2018-07-26T08:19:09.324Z,94271.63
2018-07-26T08:21:38.423Z,94274.67
2018-07-26T08:24:07.679Z,94258.89
2018-07-26T08:26:37.649Z,94254.87
2018-07-26T08:29:06.757Z,94260.97
2018-07-26T08:31:35.960Z,94255.45
2018-07-26T08:34:05.095Z,94253.27
2018-07-26T08:36:34.337Z,94255.14
2018-07-26T08:39:03.583Z,94251.58
2018-07-26T08:41:32.931Z,94249.12
2018-07-26T08:44:02.030Z,94249.79
2018-07-26T08:46:31.365Z,94252.13
2018-07-26T08:49:00.616Z,94246.14
2018-07-26T08:51:29.646Z,94250.81
2018-07-26T08:53:59.129Z,94242.03
2018-07-26T08:56:28.252Z,94247.55
2018-07-26T08:58:57.368Z,94239.69
2018-07-26T09:01:26.438Z,94236.47
2018-07-26T09:03:55.641Z,94237.59
2018-07-26T09:06:24.684Z,94236.05
2018-07-26T09:08:53.792Z,94245.28
2018-07-26T09:11:22.828Z,94236.98
2018-07-26T09:13:52.003Z,94237.15
2018-07-26T09:16:21.102Z,94232.65
2018-07-26T09:18:50.278Z,94225.31
2018-07-26T09:21:19.343Z,94224.87
2018-07-26T09:23:48.554Z,94222.86
2018-07-26T09:26:17.621Z,94225.96
2018-07-26T09:28:47.509Z,94226.50
2018-07-26T09:31:16.801Z,94216.85
2018-07-26T09:33:45.990Z,94214.63
2018-07-26T09:36:16.541Z,94218.72
2018-07-26T09:38:45.821Z,94213.53
2018-07-26T09:41:15.419Z,94209.94
2018-07-26T09:43:45.277Z,94211.31
2018-07-26T09:46:14.855Z,94205.27
2018-07-26T09:48:44.795Z,94201.80
2018-07-26T09:51:14.623Z,94200.50
2018-07-26T09:53:43.983Z,94195.12
2018-07-26T09:56:13.154Z,94196.56
2018-07-26T09:58:42.189Z,94193.28
2018-07-26T10:01:16.520Z,94189.06
2018-07-26T10:03:45.530Z,94187.50
2018-07-26T10:06:14.744Z,94193.73
2018-07-26T10:08:43.854Z,94187.80
2018-07-26T10:11:12.934Z,94186.74
2018-07-26T10:13:42.199Z,94187.53
2018-07-26T10:16:11.280Z,94185.48
2018-07-26T10:18:40.463Z,94184.28
2018-07-26T10:21:09.517Z,94183.97
2018-07-26T10:23:38.735Z,94180.59
2018-07-26T10:26:07.855Z,94175.92
2018-07-26T10:28:37.823Z,94175.27
2018-07-26T10:31:07.642Z,94172.42
2018-07-26T10:33:36.746Z,94170.69
2018-07-26T10:36:06.267Z,94166.72
2018-07-26T10:38:35.304Z,94166.00
2018-07-26T10:41:04.574Z,94168.92
2018-07-26T10:43:33.687Z,94166.87
2018-07-26T10:46:03.298Z,94170.31
2018-07-26T10:48:32.651Z,94168.23
2018-07-26T10:51:01.811Z,94168.30
2018-07-26T10:53:31.000Z,94171.59
2018-07-26T10:56:00.878Z,94167.41
2018-07-26T10:58:29.984Z,94166.38
2018-07-26T11:00:59.189Z,94155.29
2018-07-26T11:03:28.248Z,94150.28
2018-07-26T11:05:57.501Z,94154.55
2018-07-26T11:08:26.674Z,94156.83
2018-07-26T11:10:55.898Z,94150.48
2018-07-26T11:13:25.077Z,94150.92
2018-07-26T11:15:54.380Z,94159.67
2018-07-26T11:18:23.630Z,94153.08
2018-07-26T11:20:52.789Z,94149.36
2018-07-26T11:23:21.939Z,94148.83
2018-07-26T11:25:51.189Z,94142.69
2018-07-26T11:28:20.248Z,94143.47
2018-07-26T11:30:49.378Z,94142.06
2018-07-26T11:33:18.442Z,94142.54
2018-07-26T11:35:47.918Z,94136.06
2018-07-26T11:38:17.074Z,94130.36
2018-07-26T11:40:46.843Z,94132.07
2018-07-26T11:43:16.058Z,94132.62
2018-07-26T11:45:45.743Z,94133.72
2018-07-26T11:48:14.846Z,94126.85
2018-07-26T11:50:44.004Z,94127.55
2018-07-26T11:53:13.491Z,94123.70
2018-07-26T11:55:42.681Z,94117.48
2018-07-26T11:58:11.993Z,94116.87
2018-07-26T12:00:41.186Z,94113.03
2018-07-26T12:03:10.497Z,94108.76
2018-07-26T12:05:39.999Z,94105.82
2018-07-26T12:08:09.221Z,94101.59
2018-07-26T12:10:38.499Z,94099.03
2018-07-26T12:13:08.735Z,94099.19
2018-07-26T12:15:37.833Z,94104.91
2018-07-26T12:18:07.135Z,94100.59
2018-07-26T12:20:36.221Z,94095.10
2018-07-26T12:23:05.517Z,94092.44
2018-07-26T12:25:34.581Z,94084.95
2018-07-26T12:28:03.839Z,94083.70
2018-07-26T12:30:32.911Z,94078.44
2018-07-26T12:33:02.056Z,94075.38
2018-07-26T12:35:31.118Z,94067.78
2018-07-26T12:38:00.325Z,94062.72
2018-07-26T12:40:29.478Z,94059.47
2018-07-26T12:42:58.784Z,94054.36
2018-07-26T12:45:27.975Z,94051.27
2018-07-26T12:47:57.085Z,94050.30
2018-07-26T12:50:26.266Z,94049.53
2018-07-26T12:52:55.462Z,94046.87
2018-07-26T12:55:24.683Z,94049.45
2018-07-26T12:57:53.927Z,94045.05
2018-07-26T13:00:23.177Z,94045.96
2018-07-26T13:02:52.392Z,94038.19
2018-07-26T13:05:21.623Z,94039.08
2018-07-26T13:07:50.834Z,94041.47
2018-07-26T13:10:19.892Z,94038.68
2018-07-26T13:12:49.183Z,94036.92
2018-07-26T13:15:18.325Z,94039.37
2018-07-26T13:17:47.553Z,94037.39
2018-07-26T13:20:17.370Z,94029.09
2018-07-26T13:22:46.756Z,94024.87
2018-07-26T13:25:15.894Z,94026.64
2018-07-26T13:27:45.057Z,94028.60
2018-07-26T13:30:14.239Z,94026.02
2018-07-26T13:32:43.377Z,94025.80
2018-07-26T13:35:12.907Z,94026.06
2018-07-26T13:37:42.148Z,94019.25
2018-07-26T13:40:11.170Z,94020.64
2018-07-26T13:42:40.299Z,94010.44
2018-07-26T13:45:10.583Z,94015.59
2018-07-26T13:47:39.833Z,94019.88
2018-07-26T13:50:09.088Z,94019.31
2018-07-26T13:52:39.160Z,94006.19
2018-07-26T13:55:08.262Z,94007.34
2018-07-26T13:57:37.380Z,94009.46
2018-07-26T14:00:06.947Z,94011.68
2018-07-26T14:02:36.727Z,94010.45
2018-07-26T14:05:06.264Z,94012.91
2018-07-26T14:07:35.580Z,94024.69
2018-07-26T14:10:05.701Z,94023.49
2018-07-26T14:12:35.042Z,94019.08
2018-07-26T14:15:04.351Z,94018.30
2018-07-26T14:17:33.723Z,94014.72
2018-07-26T14:20:02.956Z,94019.59
2018-07-26T14:22:32.108Z,94026.21
2018-07-26T14:25:01.683Z,94021.66
2018-07-26T14:27:30.856Z,94017.09
2018-07-26T14:29:59.985Z,94014.97
2018-07-26T14:32:29.455Z,94025.09
2018-07-26T14:34:59.772Z,94020.45
2018-07-26T14:37:30.544Z,94017.36
2018-07-26T14:40:00.534Z,94014.77
2018-07-26T14:42:30.204Z,94019.16
2018-07-26T14:44:59.989Z,94024.33
2018-07-26T14:47:30.183Z,94024.17
2018-07-26T14:49:59.934Z,94023.86
2018-07-26T14:52:29.496Z,94023.47
2018-07-26T14:54:59.632Z,94021.03
2018-07-26T14:57:29.049Z,94027.05
2018-07-26T14:59:59.432Z,94026.95
2018-07-26T15:02:30.838Z,94018.79
2018-07-26T15:05:00.966Z,94025.77
2018-07-26T15:07:30.509Z,94024.24
2018-07-26T15:10:00.765Z,94018.64
2018-07-26T15:12:30.110Z,94021.52
2018-07-26T15:14:59.667Z,94023.54
2018-07-26T15:17:29.600Z,94025.22
2018-07-26T15:19:58.797Z,94025.64
2018-07-26T15:22:27.976Z,94018.10
2018-07-26T15:24:57.169Z,94018.09
2018-07-26T15:27:26.229Z,94027.14
2018-07-26T15:29:55.484Z,94034.42
2018-07-26T15:32:24.606Z,94025.06
2018-07-26T15:34:54.135Z,94034.16
2018-07-26T15:37:23.174Z,94035.81
2018-07-26T15:39:52.380Z,94036.41
2018-07-26T15:42:21.429Z,94039.07
2018-07-26T15:44:50.598Z,94041.37
2018-07-26T15:47:19.959Z,94047.36
2018-07-26T15:49:49.457Z,94050.97
2018-07-26T15:52:18.703Z,94055.30
2018-07-26T15:54:47.932Z,94057.59
2018-07-26T15:57:17.133Z,94073.61
2018-07-26T15:59:46.451Z,94081.81
2018-07-26T16:02:15.576Z,94087.43
2018-07-26T16:04:44.809Z,94090.66
2018-07-26T16:07:14.005Z,94094.06
2018-07-26T16:09:44.244Z,94095.38
2018-07-26T16:12:13.463Z,94092.71
2018-07-26T16:14:42.585Z,94098.50
2018-07-26T16:17:11.733Z,94114.27
2018-07-26T16:19:40.839Z,94115.09
2018-07-26T16:22:10.241Z,94119.81
2018-07-26T16:24:39.480Z,94109.30
2018-07-26T16:27:08.592Z,94119.88
2018-07-26T16:29:37.747Z,94107.98
2018-07-26T16:32:06.903Z,94103.79
2018-07-26T16:34:36.360Z,94091.41
2018-07-26T16:37:05.929Z,94097.47
2018-07-26T16:39:35.556Z,94107.97
2018-07-26T16:42:04.803Z,94103.72
2018-07-26T16:44:34.144Z,94106.65
2018-07-26T16:47:03.268Z,94105.28
2018-07-26T16:49:32.492Z,94108.81
2018-07-26T16:52:02.041Z,94111.77
2018-07-26T16:54:31.268Z,94116.16
2018-07-26T16:57:00.335Z,94112.97
2018-07-26T16:59:29.466Z,94121.62
2018-07-26T17:01:58.708Z,94118.80
2018-07-26T17:04:28.629Z,94125.09
2018-07-26T17:06:58.317Z,94117.56
2018-07-26T17:09:27.525Z,94117.65
2018-07-26T17:11:56.579Z,94122.39
2018-07-26T17:14:25.850Z,94119.63
2018-07-26T17:16:54.973Z,94127.73
2018-07-26T17:19:24.379Z,94128.97
2018-07-26T17:21:53.560Z,94135.88
2018-07-26T17:24:22.760Z,94125.55
2018-07-26T17:26:51.993Z,94133.34
2018-07-26T17:29:21.433Z,94137.59
2018-07-26T17:31:50.745Z,94140.28
2018-07-26T17:34:19.817Z,94137.13
2018-07-26T17:36:49.048Z,94141.48
2018-07-26T17:39:18.305Z,94150.11
2018-07-26T17:41:47.523Z,94148.42
2018-07-26T17:44:16.669Z,94155.55
2018-07-26T17:46:45.781Z,94160.59
2018-07-26T17:49:15.074Z,94169.42
2018-07-26T17:51:44.240Z,94173.81
2018-07-26T17:54:13.621Z,94168.59
2018-07-26T17:56:42.774Z,94174.53
2018-07-26T17:59:11.950Z,94174.38
2018-07-26T18:01:41.024Z,94170.59
2018-07-26T18:04:10.188Z,94177.66
2018-07-26T18:06:39.235Z,94180.91
2018-07-26T18:09:09.496Z,94185.52
2018-07-26T18:11:38.845Z,94189.23
2018-07-26T18:14:08.102Z,94189.48
2018-07-26T18:16:37.439Z,94184.53
2018-07-26T18:19:06.709Z,94197.92
2018-07-26T18:21:35.803Z,94197.49
2018-07-26T18:24:05.072Z,94206.83
2018-07-26T18:26:34.308Z,94205.86
2018-07-26T18:29:04.032Z,94199.77
2018-07-26T18:31:33.244Z,94187.28
2018-07-26T18:34:02.530Z,94190.41
2018-07-26T18:36:33.022Z,94183.72
2018-07-26T18:39:02.199Z,94196.12
2018-07-26T18:41:31.345Z,94196.48
2018-07-26T18:44:00.637Z,94196.40
2018-07-26T18:46:29.757Z,94205.27
2018-07-26T18:48:58.890Z,94204.56
2018-07-26T18:51:28.321Z,94201.62
2018-07-26T18:53:57.699Z,94195.19
2018-07-26T18:56:26.818Z,94191.25
2018-07-26T18:58:56.963Z,94200.64
2018-07-26T19:01:26.166Z,94202.23
2018-07-26T19:03:55.374Z,94205.75
2018-07-26T19:06:24.519Z,94211.09
2018-07-26T19:08:54.601Z,94209.54
2018-07-26T19:11:23.816Z,94219.75
2018-07-26T19:13:53.446Z,94221.20
2018-07-26T19:16:23.237Z,94218.48
2018-07-26T19:18:52.436Z,94217.41
2018-07-26T19:21:21.855Z,94221.18
2018-07-26T19:23:51.287Z,94219.60
2018-07-26T19:26:21.585Z,94227.58
2018-07-26T19:28:50.698Z,94232.31
2018-07-26T19:31:20.138Z,94231.50
2018-07-26T19:33:49.796Z,94232.14
2018-07-26T19:36:19.825Z,94230.33
2018-07-26T19:38:49.425Z,94230.61
2018-07-26T19:41:18.744Z,94241.00
2018-07-26T19:43:48.316Z,94241.86
2018-07-26T19:46:17.696Z,94243.94
2018-07-26T19:48:49.514Z,94245.27
2018-07-26T19:51:19.614Z,94254.06
2018-07-26T19:53:49.016Z,94250.90
2018-07-26T19:56:18.303Z,94251.77
2018-07-26T19:58:48.034Z,94247.05
2018-07-26T20:01:17.600Z,94254.34
2018-07-26T20:03:47.389Z,94256.45
2018-07-26T20:06:16.662Z,94257.75
2018-07-26T20:08:46.387Z,94264.94
2018-07-26T20:11:16.508Z,94268.11
2018-07-26T20:13:45.735Z,94266.52
2018-07-26T20:16:14.926Z,94263.67
2018-07-26T20:18:44.091Z,94270.46
2018-07-26T20:21:13.239Z,94266.51
2018-07-26T20:23:42.366Z,94269.41
2018-07-26T20:26:11.564Z,94269.42
2018-07-26T20:28:41.017Z,94267.90
2018-07-26T20:31:12.304Z,94267.41
2018-07-26T20:33:41.372Z,94268.73
2018-07-26T20:36:10.802Z,94269.25
2018-07-26T20:38:39.917Z,94267.41
2018-07-26T20:41:09.220Z,94269.00
2018-07-26T20:43:38.415Z,94282.68
2018-07-26T20:46:07.770Z,94286.39
2018-07-26T20:48:38.171Z,94284.00
2018-07-26T20:51:07.627Z,94286.38
2018-07-26T20:53:36.801Z,94289.02
2018-07-26T20:56:06.130Z,94292.16
2018-07-26T20:58:35.479Z,94291.37
2018-07-26T21:01:04.801Z,94294.00
2018-07-26T21:03:34.953Z,94290.57
2018-07-26T21:06:04.136Z,94290.84
2018-07-26T21:08:33.251Z,94286.64
2018-07-26T21:11:02.485Z,94280.84
2018-07-26T21:13:31.658Z,94275.59
2018-07-26T21:16:00.780Z,94269.00
2018-07-26T21:18:29.924Z,94268.50
2018-07-26T21:20:59.014Z,94266.39
2018-07-26T21:23:28.329Z,94256.41
2018-07-26T21:25:57.439Z,94252.71
2018-07-26T21:28:26.630Z,94250.08
2018-07-26T21:30:55.830Z,94249.55
2018-07-26T21:33:24.967Z,94248.50
2018-07-26T21:35:54.525Z,94247.14
2018-07-26T21:38:23.641Z,94245.53
2018-07-26T21:40:52.946Z,94245.25
2018-07-26T21:43:22.092Z,94252.12
2018-07-26T21:45:51.319Z,94257.62
2018-07-26T21:48:20.398Z,94262.86
2018-07-26T21:50:49.608Z,94264.70
2018-07-26T21:53:18.716Z,94261.09
2018-07-26T21:55:47.891Z,94262.39
2018-07-26T21:58:16.935Z,94260.55
2018-07-26T22:01:00.250Z,94254.73
2018-07-26T22:03:30.539Z,94261.11
2018-07-26T22:05:59.661Z,94261.08
2018-07-26T22:08:28.751Z,94259.46
2018-07-26T22:10:57.964Z,94268.11
2018-07-26T22:13:26.973Z,94272.84
2018-07-26T22:15:56.160Z,94272.05
2018-07-26T22:18:25.888Z,94268.65
2018-07-26T22:20:55.026Z,94275.98
2018-07-26T22:23:24.237Z,94266.53
2018-07-26T22:25:53.408Z,94279.39
2018-07-26T22:28:22.449Z,94269.34
2018-07-26T22:30:51.673Z,94271.45
2018-07-26T22:33:20.735Z,94272.79
2018-07-26T22:35:49.888Z,94268.31
2018-07-26T22:38:19.076Z,94264.10
2018-07-26T22:40:48.233Z,94266.23
2018-07-26T22:43:17.517Z,94265.39
2018-07-26T22:45:46.628Z,94259.30
2018-07-26T22:48:15.953Z,94259.06
2018-07-26T22:50:45.165Z,94253.80
2018-07-26T22:53:14.167Z,94250.84
2018-07-26T22:55:43.194Z,94252.21
2018-07-26T22:58:12.301Z,94256.11
2018-07-26T23:00:41.317Z,94242.97
2018-07-26T23:03:10.418Z,94250.05
2018-07-26T23:05:39.479Z,94241.14
2018-07-26T23:08:08.588Z,94240.59
2018-07-26T23:10:37.929Z,94236.45
2018-07-26T23:13:07.106Z,94232.48
2018-07-26T23:15:36.135Z,94239.47
2018-07-26T23:18:05.340Z,94241.55
2018-07-26T23:20:34.480Z,94239.62
2018-07-26T23:23:03.693Z,94239.08
2018-07-26T23:25:32.989Z,94236.98
2018-07-26T23:28:01.975Z,94240.95
2018-07-26T23:30:31.086Z,94250.36
2018-07-26T23:33:00.121Z,94241.75
2018-07-26T23:35:29.253Z,94242.77
2018-07-26T23:37:58.250Z,94234.61
2018-07-26T23:40:27.383Z,94240.11
2018-07-26T23:42:56.515Z,94236.45
2018-07-26T23:45:26.050Z,94238.05
2018-07-26T23:47:55.151Z,94233.84
2018-07-26T23:50:24.261Z,94230.66
2018-07-26T23:52:53.353Z,94230.84
2018-07-26T23:55:23.335Z,94235.97
2018-07-26T23:57:52.470Z,94233.84
